createdAt,value
2022-12-13T00:19:25.646Z,15.20
2022-12-13T00:23:35.584Z,15.63
2022-12-13T00:27:46.286Z,14.47
2022-12-13T00:32:00.653Z,15.50
2022-12-13T00:36:13.286Z,14.60
2022-12-13T00:40:22.844Z,15.37
2022-12-13T00:44:32.846Z,13.33
2022-12-13T00:48:42.184Z,13.67
2022-12-13T00:52:53.049Z,14.43
2022-12-13T00:57:02.386Z,13.53
2022-12-13T01:01:15.084Z,14.23
2022-12-13T01:05:47.566Z,12.73
2022-12-13T01:09:55.750Z,12.53
2022-12-13T01:14:04.944Z,12.37
2022-12-13T01:18:22.865Z,12.40
2022-12-13T01:22:32.748Z,12.40
2022-12-13T01:26:43.664Z,12.07
2022-12-13T01:30:57.800Z,11.87
2022-12-13T01:35:07.786Z,12.67
2022-12-13T01:39:28.616Z,12.40
2022-12-13T01:48:20.246Z,11.67
2022-12-13T01:52:32.207Z,12.57
2022-12-13T01:56:46.366Z,12.27
2022-12-13T02:00:56.189Z,11.93
2022-12-13T02:05:11.745Z,12.60
2022-12-13T02:09:22.485Z,11.23
2022-12-13T02:13:31.970Z,12.03
2022-12-13T02:17:54.807Z,10.83
2022-12-13T02:22:17.487Z,11.87
2022-12-13T02:26:49.675Z,10.97
2022-12-13T02:31:07.430Z,10.30
2022-12-13T02:35:25.225Z,11.00
2022-12-13T02:39:42.088Z,11.27
2022-12-13T02:44:01.289Z,11.87
2022-12-13T02:48:15.383Z,10.97
2022-12-13T02:52:28.405Z,11.00
2022-12-13T02:56:40.426Z,11.67
2022-12-13T03:01:00.707Z,10.93
2022-12-13T03:05:40.287Z,11.60
2022-12-13T03:09:58.926Z,11.80
2022-12-13T03:14:12.571Z,12.20
2022-12-13T03:18:25.107Z,11.23
2022-12-13T03:22:37.464Z,11.67
2022-12-13T03:26:47.703Z,11.03
2022-12-13T03:30:57.098Z,10.87
2022-12-13T03:35:21.713Z,11.33
2022-12-13T03:39:38.369Z,11.13
2022-12-13T03:44:06.250Z,10.80
2022-12-13T03:48:21.925Z,10.80
2022-12-13T03:52:32.828Z,10.23
2022-12-13T03:56:43.724Z,10.20
2022-12-13T04:00:53.224Z,10.50
2022-12-13T04:05:02.548Z,9.80
2022-12-13T04:09:11.908Z,10.13
2022-12-13T04:13:34.853Z,10.80
2022-12-13T04:17:44.392Z,10.23
2022-12-13T04:22:02.229Z,10.10
2022-12-13T04:26:11.927Z,10.53
2022-12-13T04:30:22.767Z,10.63
2022-12-13T04:34:37.198Z,10.37
2022-12-13T04:38:48.050Z,10.27
2022-12-13T04:42:57.826Z,11.00
2022-12-13T04:47:08.827Z,11.17
2022-12-13T04:51:18.966Z,9.90
2022-12-13T04:55:28.543Z,10.80
2022-12-13T04:59:38.711Z,10.07
2022-12-13T05:03:49.704Z,10.57
2022-12-13T05:08:00.198Z,9.67
2022-12-13T05:12:23.030Z,10.13
2022-12-13T05:16:33.083Z,10.50
2022-12-13T05:20:44.084Z,10.50
2022-12-13T05:24:53.729Z,10.80
2022-12-13T05:29:03.146Z,10.27
2022-12-13T05:33:13.345Z,11.13
2022-12-13T05:37:24.206Z,11.10
2022-12-13T05:41:37.144Z,9.80
2022-12-13T05:45:46.685Z,11.33
2022-12-13T05:49:56.289Z,11.40
2022-12-13T05:54:07.305Z,10.33
2022-12-13T05:58:23.120Z,11.20
2022-12-13T06:02:32.896Z,11.23
2022-12-13T06:06:42.365Z,11.60
2022-12-13T06:11:10.801Z,11.23
2022-12-13T06:15:22.945Z,12.00
2022-12-13T06:19:32.926Z,12.27
2022-12-13T06:23:42.148Z,12.27
2022-12-13T06:27:55.326Z,11.80
2022-12-13T06:32:05.765Z,12.43
2022-12-13T06:36:15.839Z,12.10
2022-12-13T06:40:25.304Z,10.97
2022-12-13T06:44:36.286Z,12.27
2022-12-13T06:48:46.573Z,12.63
2022-12-13T06:52:56.123Z,12.03
2022-12-13T06:57:05.766Z,12.73
2022-12-13T07:01:23.955Z,12.73
2022-12-13T07:05:34.206Z,12.60
2022-12-13T07:09:44.108Z,12.37
2022-12-13T07:13:54.329Z,13.20
2022-12-13T07:18:06.505Z,13.03
2022-12-13T07:22:16.484Z,13.30
2022-12-13T07:26:26.365Z,15.10
2022-12-13T07:30:41.286Z,14.83
2022-12-13T07:34:52.945Z,14.43
2022-12-13T07:39:02.545Z,14.17
2022-12-13T07:43:12.365Z,13.90
2022-12-13T07:47:22.143Z,14.70
2022-12-13T07:51:36.885Z,13.83
2022-12-13T07:55:48.524Z,13.60
2022-12-13T08:00:00.396Z,14.47
2022-12-13T08:04:10.663Z,15.33
2022-12-13T08:08:22.138Z,15.70
2022-12-13T08:12:44.474Z,15.20
2022-12-13T08:16:53.869Z,15.77
2022-12-13T08:21:10.462Z,16.27
2022-12-13T08:25:36.439Z,14.93
2022-12-13T08:29:46.026Z,15.67
2022-12-13T08:33:56.252Z,16.10
2022-12-13T08:38:05.732Z,15.57
2022-12-13T08:42:19.853Z,15.53
2022-12-13T08:46:30.314Z,15.60
2022-12-13T08:50:46.075Z,16.23
2022-12-13T08:54:55.547Z,15.70
2022-12-13T08:59:06.525Z,16.03
2022-12-13T09:07:59.036Z,16.60
2022-12-13T09:12:29.773Z,16.37
2022-12-13T09:16:50.841Z,16.53
2022-12-13T09:21:10.725Z,16.73
2022-12-13T09:25:25.001Z,17.43
2022-12-13T09:29:35.487Z,16.87
2022-12-13T09:33:46.995Z,16.47
2022-12-13T09:37:57.548Z,16.37
2022-12-13T09:42:10.106Z,16.13
2022-12-13T09:46:34.633Z,16.70
2022-12-13T09:51:17.283Z,15.57
2022-12-13T09:55:30.433Z,15.53
2022-12-13T09:59:40.890Z,16.77
2022-12-13T10:03:52.705Z,17.23
2022-12-13T10:08:10.812Z,16.83
2022-12-13T10:12:22.110Z,17.03
2022-12-13T10:16:41.811Z,17.63
2022-12-13T10:25:51.038Z,17.30
2022-12-13T10:30:06.143Z,17.57
2022-12-13T10:34:28.323Z,19.10
2022-12-13T10:38:41.024Z,16.13
2022-12-13T10:43:09.171Z,17.10
2022-12-13T10:47:23.735Z,18.23
2022-12-13T10:51:41.237Z,18.17
2022-12-13T10:56:02.091Z,18.07
2022-12-13T11:00:41.899Z,17.40
2022-12-13T11:04:51.457Z,17.10
2022-12-13T11:09:01.527Z,18.07
2022-12-13T11:13:27.069Z,19.57
2022-12-13T11:17:47.466Z,17.47
2022-12-13T11:21:59.654Z,17.80
2022-12-13T11:26:12.362Z,17.77
2022-12-13T11:30:26.495Z,18.37
2022-12-13T11:34:46.462Z,17.83
2022-12-13T11:39:08.898Z,18.33
2022-12-13T11:43:39.368Z,18.40
2022-12-13T11:47:58.419Z,19.40
2022-12-13T11:52:16.827Z,19.77
2022-12-13T11:56:29.630Z,19.73
2022-12-13T12:00:45.236Z,18.50
2022-12-13T12:05:01.110Z,19.03
2022-12-13T12:09:18.555Z,21.13
2022-12-13T12:13:34.491Z,20.40
2022-12-13T12:18:03.317Z,20.43
2022-12-13T12:22:27.607Z,20.53
2022-12-13T12:27:14.003Z,20.27
2022-12-13T12:36:37.167Z,21.13
2022-12-13T12:41:17.305Z,20.83
2022-12-13T12:45:56.241Z,20.30
2022-12-13T12:50:37.333Z,21.07
2022-12-13T12:55:04.354Z,20.67
2022-12-13T12:59:21.245Z,20.07
2022-12-13T13:03:34.823Z,21.10
2022-12-13T13:07:51.408Z,21.27
2022-12-13T13:12:29.955Z,21.03
2022-12-13T13:16:38.654Z,20.70
2022-12-13T13:21:31.187Z,20.63
2022-12-13T13:26:07.673Z,20.50
2022-12-13T13:30:19.756Z,22.03
2022-12-13T13:34:30.492Z,21.97
2022-12-13T13:39:01.330Z,23.03
2022-12-13T13:43:18.372Z,22.70
2022-12-13T13:47:40.377Z,21.53
2022-12-13T13:52:24.439Z,20.97
2022-12-13T13:57:20.215Z,22.83
2022-12-13T14:02:11.987Z,22.37
2022-12-13T14:07:09.130Z,20.77
2022-12-13T14:12:05.957Z,21.77
2022-12-13T14:16:47.967Z,22.57
2022-12-13T14:21:12.294Z,21.87
2022-12-13T14:25:52.439Z,22.13
2022-12-13T14:30:09.578Z,22.73
2022-12-13T14:34:37.575Z,21.17
2022-12-13T14:38:49.474Z,21.37
2022-12-13T14:43:00.182Z,21.97
2022-12-13T14:47:15.346Z,20.97
2022-12-13T14:51:35.102Z,21.90
2022-12-13T14:56:05.283Z,22.43
2022-12-13T15:00:29.075Z,21.80
2022-12-13T15:04:41.103Z,20.97
2022-12-13T15:08:51.423Z,20.07
2022-12-13T15:13:01.475Z,21.87
2022-12-13T15:17:28.243Z,21.87
2022-12-13T15:21:42.205Z,21.17
2022-12-13T15:26:07.662Z,20.00
2022-12-13T15:30:18.680Z,22.50
2022-12-13T15:34:49.161Z,21.50
2022-12-13T15:39:04.743Z,21.03
2022-12-13T15:43:33.642Z,23.30
2022-12-13T15:47:48.020Z,22.00
2022-12-13T15:52:00.869Z,28.60
2022-12-13T15:56:42.774Z,21.97
2022-12-13T16:01:00.130Z,22.13
2022-12-13T16:05:22.633Z,21.93
2022-12-13T16:09:36.981Z,22.00
2022-12-13T16:13:58.329Z,22.17
2022-12-13T16:18:16.924Z,22.17
2022-12-13T16:22:32.018Z,21.60
2022-12-13T16:26:47.760Z,22.50
2022-12-13T16:31:08.344Z,22.13
2022-12-13T16:35:18.163Z,22.97
2022-12-13T16:39:29.034Z,23.37
2022-12-13T16:43:43.983Z,24.10
2022-12-13T16:47:55.613Z,22.73
2022-12-13T16:52:10.124Z,22.37
2022-12-13T16:56:22.549Z,22.20
2022-12-13T17:00:39.263Z,23.17
2022-12-13T17:04:53.589Z,23.13
2022-12-13T17:09:04.190Z,23.63
2022-12-13T17:13:13.528Z,23.47
2022-12-13T17:17:23.125Z,24.00
2022-12-13T17:21:34.010Z,23.90
2022-12-13T17:25:43.345Z,24.17
2022-12-13T17:29:52.507Z,24.03
2022-12-13T17:34:03.006Z,23.30
2022-12-13T17:38:13.705Z,24.10
2022-12-13T17:42:22.827Z,23.93
2022-12-13T17:46:32.175Z,25.60
2022-12-13T17:50:41.426Z,25.00
2022-12-13T17:54:52.147Z,24.93
2022-12-13T17:59:01.346Z,25.27
2022-12-13T18:03:10.545Z,25.00
2022-12-13T18:07:20.206Z,25.10
2022-12-13T18:11:33.732Z,27.23
2022-12-13T18:15:43.442Z,26.47
2022-12-13T18:19:52.719Z,26.40
2022-12-13T18:24:02.209Z,27.57
2022-12-13T18:28:13.085Z,25.93
2022-12-13T18:32:22.347Z,27.07
2022-12-13T18:36:31.587Z,25.93
2022-12-13T18:40:41.246Z,27.30
2022-12-13T18:44:54.734Z,28.87
2022-12-13T18:49:04.847Z,28.80
2022-12-13T18:53:15.408Z,29.27
2022-12-13T18:57:25.226Z,26.87
2022-12-13T19:01:37.202Z,29.70
2022-12-13T19:05:46.690Z,29.23
2022-12-13T19:09:55.987Z,30.00
2022-12-13T19:14:05.427Z,29.43
2022-12-13T19:18:16.288Z,29.67
2022-12-13T19:22:25.527Z,30.00
2022-12-13T19:26:34.688Z,32.40
2022-12-13T19:30:46.988Z,29.90
2022-12-13T19:34:57.807Z,77.37
2022-12-13T19:39:07.265Z,33.17
2022-12-13T19:43:16.967Z,32.00
2022-12-13T19:47:26.288Z,31.00
2022-12-13T19:51:39.863Z,32.00
2022-12-13T19:55:49.327Z,32.53
2022-12-13T19:59:58.486Z,32.70
2022-12-13T20:04:07.966Z,31.93
2022-12-13T20:08:18.607Z,32.20
2022-12-13T20:12:27.847Z,35.00
2022-12-13T20:16:37.141Z,34.70
2022-12-13T20:21:10.450Z,34.57
2022-12-13T20:25:18.169Z,33.90
2022-12-13T20:29:27.449Z,33.53
2022-12-13T20:33:37.225Z,33.20
2022-12-13T20:37:48.235Z,34.07
2022-12-13T20:41:59.245Z,31.47
2022-12-13T20:46:10.346Z,33.23
2022-12-13T20:50:19.881Z,33.90
2022-12-13T20:54:29.209Z,34.67
2022-12-13T20:58:40.647Z,35.17
2022-12-13T21:02:49.888Z,32.90
2022-12-13T21:07:02.953Z,33.73
2022-12-13T21:11:29.527Z,34.57
2022-12-13T21:15:40.326Z,34.87
2022-12-13T21:19:49.691Z,35.13
2022-12-13T21:24:21.197Z,35.97
2022-12-13T21:32:57.547Z,33.30
2022-12-13T21:37:06.648Z,35.57
2022-12-13T21:41:16.706Z,35.33
2022-12-13T21:45:25.831Z,37.37
2022-12-13T21:49:36.988Z,79.87
2022-12-13T21:53:47.266Z,47.93
2022-12-13T21:58:13.565Z,36.03
2022-12-13T22:02:22.892Z,33.50
2022-12-13T22:06:33.627Z,34.83
2022-12-13T22:16:36.187Z,35.20
2022-12-13T22:20:55.177Z,36.93
2022-12-13T22:25:15.531Z,35.23
2022-12-13T22:29:25.260Z,36.00
2022-12-13T23:45:55.790Z,36.07
2022-12-13T23:50:05.351Z,37.90
2022-12-13T23:58:59.073Z,37.43
